Time;durP1;ratioP1;P1;durP2;ratioP2;P2;SDS_P1;SDS_P2;PMS_P1;PMS_P2;Temp;Humidity;BMP_temperature;BMP_pressure;BME280_temperature;BME280_humidity;BME280_pressure;Samples;Min_cycle;Max_cycle;Signal;HPM_P1;HPM_P2
2023/03/31 00:01:51;;;;;;;14.50;9.50;;;;;;;-128.00;-1.00;-1.00;103444;1256;1002426;-79
2023/03/31 00:04:18;;;;;;;12.20;8.80;;;;;;;-128.00;-1.00;-1.00;103415;1255;1002718;-81
2023/03/31 00:06:44;;;;;;;12.80;7.90;;;;;;;-128.00;-1.00;-1.00;103420;1259;1003058;-79
2023/03/31 00:09:12;;;;;;;17.80;10.20;;;;;;;-128.00;-1.00;-1.00;103428;1257;1002283;-78
2023/03/31 00:11:39;;;;;;;13.80;7.70;;;;;;;-128.00;-1.00;-1.00;103524;1257;1012077;-79
2023/03/31 00:14:06;;;;;;;12.40;8.80;;;;;;;-128.00;-1.00;-1.00;103434;1259;1003183;-77
2023/03/31 00:16:34;;;;;;;14.00;9.20;;;;;;;-128.00;-1.00;-1.00;103413;1256;1002910;-79
2023/03/31 00:19:00;;;;;;;11.90;8.20;;;;;;;-128.00;-1.00;-1.00;103386;1257;1002382;-78
2023/03/31 00:21:33;;;;;;;10.60;7.80;;;;;;;-128.00;-1.00;-1.00;103446;1257;1003454;-78
2023/03/31 00:24:04;;;;;;;14.10;8.90;;;;;;;-128.00;-1.00;-1.00;103413;1257;1013645;-78
2023/03/31 00:26:31;;;;;;;12.60;8.60;;;;;;;-128.00;-1.00;-1.00;103428;1255;1010036;-80
2023/03/31 00:28:58;;;;;;;15.80;8.60;;;;;;;-128.00;-1.00;-1.00;105219;1256;1002494;-80
2023/03/31 00:31:26;;;;;;;13.70;8.10;;;;;;;-128.00;-1.00;-1.00;103420;1256;1002759;-77
2023/03/31 00:33:52;;;;;;;15.10;8.80;;;;;;;-128.00;-1.00;-1.00;103435;1256;1004123;-78
2023/03/31 00:36:26;;;;;;;17.20;9.50;;;;;;;-128.00;-1.00;-1.00;103407;1256;1002851;-78
2023/03/31 00:38:53;;;;;;;12.90;9.00;;;;;;;-128.00;-1.00;-1.00;104656;1257;1010357;-80
2023/03/31 00:41:20;;;;;;;15.20;8.00;;;;;;;-128.00;-1.00;-1.00;103344;1257;1004198;-80
2023/03/31 00:44:11;;;;;;;12.60;8.30;;;;;;;-128.00;-1.00;-1.00;103405;1260;1003011;-78
2023/03/31 00:46:43;;;;;;;16.00;8.90;;;;;;;-128.00;-1.00;-1.00;103499;1260;1013250;-78
2023/03/31 00:49:15;;;;;;;10.70;7.40;;;;;;;-128.00;-1.00;-1.00;103510;1256;1014193;-79
2023/03/31 00:51:41;;;;;;;10.70;8.00;;;;;;;-128.00;-1.00;-1.00;103353;1259;1010886;-80
2023/03/31 00:54:08;;;;;;;15.30;8.40;;;;;;;-128.00;-1.00;-1.00;103382;1258;1003074;-78
2023/03/31 00:56:36;;;;;;;10.30;7.40;;;;;;;-128.00;-1.00;-1.00;103077;1263;1004743;-78
2023/03/31 00:59:03;;;;;;;10.50;8.20;;;;;;;-128.00;-1.00;-1.00;103306;1257;1002714;-78
2023/03/31 01:01:30;;;;;;;13.50;8.30;;;;;;;-128.00;-1.00;-1.00;103422;1257;1002658;-80
2023/03/31 01:03:58;;;;;;;14.50;7.90;;;;;;;-128.00;-1.00;-1.00;103435;1257;1002344;-79
2023/03/31 01:06:25;;;;;;;13.70;8.50;;;;;;;-128.00;-1.00;-1.00;103415;1255;1003028;-79
2023/03/31 01:08:51;;;;;;;14.50;8.70;;;;;;;-128.00;-1.00;-1.00;103398;1257;1003141;-80
2023/03/31 01:11:19;;;;;;;11.30;8.50;;;;;;;-128.00;-1.00;-1.00;103379;1257;1003022;-78
2023/03/31 01:13:48;;;;;;;15.70;8.90;;;;;;;-128.00;-1.00;-1.00;103434;1256;1002966;-78
2023/03/31 01:16:16;;;;;;;14.20;7.70;;;;;;;-128.00;-1.00;-1.00;103339;1257;1010731;-78
2023/03/31 01:18:48;;;;;;;11.50;5.90;;;;;;;-128.00;-1.00;-1.00;103441;1257;1002948;-80
2023/03/31 01:21:37;;;;;;;13.10;7.00;;;;;;;-128.00;-1.00;-1.00;103443;1259;1013046;-78
2023/03/31 01:24:27;;;;;;;12.00;7.80;;;;;;;-128.00;-1.00;-1.00;103417;1257;1012916;-77
2023/03/31 01:27:20;;;;;;;11.40;7.60;;;;;;;-128.00;-1.00;-1.00;103442;1257;1012944;-80
2023/03/31 01:30:06;;;;;;;12.80;7.30;;;;;;;-128.00;-1.00;-1.00;103402;1260;1010039;-78
2023/03/31 01:32:40;;;;;;;9.80;6.00;;;;;;;-128.00;-1.00;-1.00;103268;1262;1010908;-78
2023/03/31 01:35:25;;;;;;;11.20;8.50;;;;;;;-128.00;-1.00;-1.00;103404;1256;1016441;-80
2023/03/31 01:38:00;;;;;;;11.50;7.70;;;;;;;-128.00;-1.00;-1.00;103453;1258;1013269;-79
2023/03/31 01:41:00;;;;;;;14.10;8.30;;;;;;;-128.00;-1.00;-1.00;103356;1256;1013439;-78
2023/03/31 01:43:47;;;;;;;11.70;7.50;;;;;;;-128.00;-1.00;-1.00;103374;1260;1010909;-78
2023/03/31 01:46:29;;;;;;;13.20;8.20;;;;;;;-128.00;-1.00;-1.00;103416;1260;1010616;-80
2023/03/31 01:49:04;;;;;;;11.50;7.50;;;;;;;-128.00;-1.00;-1.00;103307;1256;1016516;-80
2023/03/31 01:51:59;;;;;;;9.40;6.30;;;;;;;-128.00;-1.00;-1.00;103399;1257;1015893;-78
2023/03/31 01:54:31;;;;;;;13.80;7.50;;;;;;;-128.00;-1.00;-1.00;105100;1256;1013562;-78
2023/03/31 01:57:00;;;;;;;10.40;7.50;;;;;;;-128.00;-1.00;-1.00;103377;1256;1010690;-78
2023/03/31 01:59:29;;;;;;;10.70;7.00;;;;;;;-128.00;-1.00;-1.00;106433;1256;1010644;-77
2023/03/31 02:01:57;;;;;;;9.80;5.70;;;;;;;-128.00;-1.00;-1.00;105558;1257;1012322;-78
2023/03/31 02:04:45;;;;;;;10.50;6.80;;;;;;;-128.00;-1.00;-1.00;103436;1257;1002824;-78
2023/03/31 02:07:16;;;;;;;8.70;6.00;;;;;;;-128.00;-1.00;-1.00;103389;1256;1012385;-78
2023/03/31 02:09:44;;;;;;;9.70;6.60;;;;;;;-128.00;-1.00;-1.00;105664;1256;1009759;-80
2023/03/31 02:12:11;;;;;;;12.10;7.20;;;;;;;-128.00;-1.00;-1.00;103103;1256;1010637;-80
2023/03/31 02:14:40;;;;;;;8.80;6.00;;;;;;;-128.00;-1.00;-1.00;103449;1257;1002550;-78
2023/03/31 02:17:07;;;;;;;8.90;6.50;;;;;;;-128.00;-1.00;-1.00;103146;1260;1013626;-78
2023/03/31 02:19:37;;;;;;;8.90;5.40;;;;;;;-128.00;-1.00;-1.00;103835;1263;1002535;-80
2023/03/31 02:22:03;;;;;;;8.20;4.90;;;;;;;-128.00;-1.00;-1.00;103559;1262;1009882;-79
2023/03/31 02:24:30;;;;;;;8.60;4.90;;;;;;;-128.00;-1.00;-1.00;103810;1257;1002478;-78
2023/03/31 02:27:01;;;;;;;7.30;4.90;;;;;;;-128.00;-1.00;-1.00;103378;1258;1002952;-78
2023/03/31 02:29:27;;;;;;;13.00;5.10;;;;;;;-128.00;-1.00;-1.00;103420;1259;1013377;-77
2023/03/31 02:32:05;;;;;;;8.30;4.30;;;;;;;-128.00;-1.00;-1.00;103406;1256;1003315;-77
2023/03/31 02:34:32;;;;;;;10.80;5.40;;;;;;;-128.00;-1.00;-1.00;105483;1256;1009854;-80
2023/03/31 02:36:58;;;;;;;9.00;5.80;;;;;;;-128.00;-1.00;-1.00;103382;1256;1002805;-79
2023/03/31 02:39:27;;;;;;;7.00;4.70;;;;;;;-128.00;-1.00;-1.00;103527;1259;1002523;-80
2023/03/31 02:41:54;;;;;;;7.70;4.40;;;;;;;-128.00;-1.00;-1.00;105330;1256;1012184;-79
2023/03/31 02:44:20;;;;;;;8.50;5.00;;;;;;;-128.00;-1.00;-1.00;104317;1256;1002982;-80
2023/03/31 02:46:47;;;;;;;7.80;5.00;;;;;;;-128.00;-1.00;-1.00;106440;1256;1002338;-78
2023/03/31 02:49:13;;;;;;;10.20;5.60;;;;;;;-128.00;-1.00;-1.00;104288;1257;1002438;-77
2023/03/31 02:52:02;;;;;;;7.40;4.90;;;;;;;-128.00;-1.00;-1.00;103443;1256;1004657;-78
2023/03/31 02:54:33;;;;;;;;;;;;;;;-128.00;-1.00;-1.00;103415;1256;1013571;-77
2023/03/31 02:57:34;;;;;;;5.70;4.30;;;;;;;-128.00;-1.00;-1.00;103381;1256;1012790;-79
2023/03/31 03:00:13;;;;;;;8.90;5.50;;;;;;;-128.00;-1.00;-1.00;103389;1259;1009530;-78
2023/03/31 03:03:18;;;;;;;6.60;5.20;;;;;;;-128.00;-1.00;-1.00;103382;1257;1011370;-77
2023/03/31 03:05:53;;;;;;;10.60;5.40;;;;;;;-128.00;-1.00;-1.00;103422;1256;1012897;-78
2023/03/31 03:08:44;;;;;;;10.80;6.10;;;;;;;-128.00;-1.00;-1.00;103430;1256;1012957;-80
2023/03/31 03:11:26;;;;;;;7.30;4.70;;;;;;;-128.00;-1.00;-1.00;103437;1256;1012824;-78
2023/03/31 03:14:08;;;;;;;7.80;4.00;;;;;;;-128.00;-1.00;-1.00;103384;1256;1010220;-80
2023/03/31 03:16:38;;;;;;;4.50;3.00;;;;;;;-128.00;-1.00;-1.00;103250;1262;1011731;-77
2023/03/31 03:19:05;;;;;;;11.40;5.60;;;;;;;-128.00;-1.00;-1.00;103458;1256;1012874;-78
2023/03/31 03:21:31;;;;;;;10.10;4.90;;;;;;;-128.00;-1.00;-1.00;103446;1256;1002892;-80
2023/03/31 03:23:59;;;;;;;11.80;8.50;;;;;;;-128.00;-1.00;-1.00;103421;1257;1002768;-80
2023/03/31 03:26:27;;;;;;;11.50;8.10;;;;;;;-128.00;-1.00;-1.00;103219;1256;1002862;-80
2023/03/31 03:28:54;;;;;;;8.00;4.10;;;;;;;-128.00;-1.00;-1.00;103252;1257;1002781;-80
2023/03/31 03:31:22;;;;;;;6.00;4.20;;;;;;;-128.00;-1.00;-1.00;103384;1256;1002837;-78
2023/03/31 03:33:49;;;;;;;6.30;4.80;;;;;;;-128.00;-1.00;-1.00;103375;1260;1013695;-80
2023/03/31 03:36:16;;;;;;;8.90;4.50;;;;;;;-128.00;-1.00;-1.00;103376;1256;1002862;-80
2023/03/31 03:38:42;;;;;;;7.60;4.00;;;;;;;-128.00;-1.00;-1.00;103425;1257;1002676;-78
2023/03/31 03:41:09;;;;;;;7.90;5.30;;;;;;;-128.00;-1.00;-1.00;103446;1260;1002546;-79
2023/03/31 03:43:35;;;;;;;9.10;5.10;;;;;;;-128.00;-1.00;-1.00;103968;1260;1002799;-80
2023/03/31 03:46:02;;;;;;;5.50;4.20;;;;;;;-128.00;-1.00;-1.00;103874;1260;1002779;-80
2023/03/31 03:48:28;;;;;;;10.50;7.00;;;;;;;-128.00;-1.00;-1.00;103806;1256;1004071;-78
2023/03/31 03:50:56;;;;;;;11.50;6.70;;;;;;;-128.00;-1.00;-1.00;103889;1257;1003104;-78
2023/03/31 03:53:22;;;;;;;14.40;9.80;;;;;;;-128.00;-1.00;-1.00;103850;1256;1002650;-80
2023/03/31 03:55:49;;;;;;;7.20;5.20;;;;;;;-128.00;-1.00;-1.00;103439;1260;1002655;-80
2023/03/31 03:58:16;;;;;;;6.80;4.30;;;;;;;-128.00;-1.00;-1.00;103418;1259;1002878;-78
2023/03/31 04:00:44;;;;;;;6.70;4.70;;;;;;;-128.00;-1.00;-1.00;103393;1256;1003278;-80
2023/03/31 04:03:11;;;;;;;4.10;3.30;;;;;;;-128.00;-1.00;-1.00;103415;1256;1010244;-79
2023/03/31 04:05:37;;;;;;;8.40;4.40;;;;;;;-128.00;-1.00;-1.00;103343;1257;1004471;-78
2023/03/31 04:08:05;;;;;;;7.50;5.10;;;;;;;-128.00;-1.00;-1.00;103429;1256;1002799;-78
2023/03/31 04:10:31;;;;;;;7.80;4.70;;;;;;;-128.00;-1.00;-1.00;103232;1262;1002763;-78
2023/03/31 04:12:57;;;;;;;6.70;4.80;;;;;;;-128.00;-1.00;-1.00;103451;1256;1002802;-79
2023/03/31 04:15:24;;;;;;;5.40;3.80;;;;;;;-128.00;-1.00;-1.00;103734;1260;1003096;-78
2023/03/31 04:17:53;;;;;;;8.30;4.70;;;;;;;-128.00;-1.00;-1.00;103815;1256;1002858;-80
2023/03/31 04:20:20;;;;;;;6.90;4.30;;;;;;;-128.00;-1.00;-1.00;103406;1256;1012696;-80
2023/03/31 04:22:49;;;;;;;6.70;3.80;;;;;;;-128.00;-1.00;-1.00;103665;1257;1002163;-80
2023/03/31 04:25:16;;;;;;;7.70;4.60;;;;;;;-128.00;-1.00;-1.00;103388;1260;1013026;-78
2023/03/31 04:27:49;;;;;;;7.60;4.10;;;;;;;-128.00;-1.00;-1.00;103393;1256;1002688;-80
2023/03/31 04:30:22;;;;;;;7.70;4.80;;;;;;;-128.00;-1.00;-1.00;103175;1256;1011871;-78
2023/03/31 04:32:53;;;;;;;8.90;5.40;;;;;;;-128.00;-1.00;-1.00;103454;1256;1013335;-78
2023/03/31 04:35:20;;;;;;;9.40;4.90;;;;;;;-128.00;-1.00;-1.00;103395;1259;1014598;-80
2023/03/31 04:37:47;;;;;;;5.80;4.20;;;;;;;-128.00;-1.00;-1.00;103419;1256;1004544;-80
2023/03/31 04:40:15;;;;;;;11.20;7.20;;;;;;;-128.00;-1.00;-1.00;103373;1256;1004659;-80
2023/03/31 04:42:42;;;;;;;9.00;5.00;;;;;;;-128.00;-1.00;-1.00;103557;1256;1002599;-80
2023/03/31 04:45:10;;;;;;;10.90;4.20;;;;;;;-128.00;-1.00;-1.00;103395;1256;1002353;-78
2023/03/31 04:47:37;;;;;;;7.10;4.00;;;;;;;-128.00;-1.00;-1.00;103713;1259;1002622;-80
2023/03/31 04:50:03;;;;;;;8.40;5.10;;;;;;;-128.00;-1.00;-1.00;103384;1256;1003094;-80
2023/03/31 04:52:30;;;;;;;7.40;5.30;;;;;;;-128.00;-1.00;-1.00;103083;1256;1003642;-80
2023/03/31 04:54:57;;;;;;;9.90;4.70;;;;;;;-128.00;-1.00;-1.00;103425;1256;1002875;-78
2023/03/31 04:57:23;;;;;;;10.80;6.20;;;;;;;-128.00;-1.00;-1.00;103325;1257;1002441;-80
2023/03/31 04:59:49;;;;;;;8.50;5.80;;;;;;;-128.00;-1.00;-1.00;103380;1260;1005226;-78
2023/03/31 05:02:22;;;;;;;8.10;4.50;;;;;;;-128.00;-1.00;-1.00;103439;1257;1002905;-80
2023/03/31 05:04:49;;;;;;;12.20;6.80;;;;;;;-128.00;-1.00;-1.00;103746;1257;1009904;-78
2023/03/31 05:07:19;;;;;;;14.30;5.90;;;;;;;-128.00;-1.00;-1.00;103470;1256;1003608;-78
2023/03/31 05:09:46;;;;;;;7.90;5.20;;;;;;;-128.00;-1.00;-1.00;103463;1256;1013505;-78
2023/03/31 05:12:13;;;;;;;8.80;5.30;;;;;;;-128.00;-1.00;-1.00;103863;1256;1003850;-80
2023/03/31 05:14:39;;;;;;;10.60;5.50;;;;;;;-128.00;-1.00;-1.00;103362;1259;1002683;-79
2023/03/31 05:17:05;;;;;;;7.40;5.50;;;;;;;-128.00;-1.00;-1.00;103386;1256;1002750;-78
2023/03/31 05:19:32;;;;;;;15.10;7.30;;;;;;;-128.00;-1.00;-1.00;103374;1259;1003421;-80
2023/03/31 05:21:58;;;;;;;9.50;5.90;;;;;;;-128.00;-1.00;-1.00;103426;1259;1003108;-80
2023/03/31 05:24:27;;;;;;;10.50;7.00;;;;;;;-128.00;-1.00;-1.00;103371;1259;1002703;-78
2023/03/31 05:26:54;;;;;;;8.50;6.20;;;;;;;-128.00;-1.00;-1.00;103463;1257;1013066;-80
2023/03/31 05:29:21;;;;;;;10.30;6.40;;;;;;;-128.00;-1.00;-1.00;103420;1256;1002882;-78
2023/03/31 05:31:47;;;;;;;11.40;7.50;;;;;;;-128.00;-1.00;-1.00;103365;1256;1002611;-78
2023/03/31 05:34:14;;;;;;;13.70;9.50;;;;;;;-128.00;-1.00;-1.00;103540;1259;1003363;-78
2023/03/31 05:36:42;;;;;;;15.90;7.60;;;;;;;-128.00;-1.00;-1.00;103205;1260;1002656;-78
2023/03/31 05:39:08;;;;;;;11.30;7.10;;;;;;;-128.00;-1.00;-1.00;103191;1256;1002381;-80
2023/03/31 05:41:35;;;;;;;13.80;8.10;;;;;;;-128.00;-1.00;-1.00;103392;1260;1005184;-80
2023/03/31 05:44:01;;;;;;;14.40;8.20;;;;;;;-128.00;-1.00;-1.00;103443;1260;1002320;-78
2023/03/31 05:46:28;;;;;;;15.60;8.70;;;;;;;-128.00;-1.00;-1.00;103385;1256;1002930;-79
2023/03/31 05:48:55;;;;;;;20.10;10.10;;;;;;;-128.00;-1.00;-1.00;103371;1256;1004212;-80
2023/03/31 05:51:22;;;;;;;14.20;8.90;;;;;;;-128.00;-1.00;-1.00;103385;1256;1003188;-78
2023/03/31 05:53:48;;;;;;;14.60;7.80;;;;;;;-128.00;-1.00;-1.00;103397;1256;1003838;-80
2023/03/31 05:56:14;;;;;;;11.80;6.50;;;;;;;-128.00;-1.00;-1.00;103424;1257;1004150;-81
2023/03/31 05:58:41;;;;;;;12.40;6.60;;;;;;;-128.00;-1.00;-1.00;103367;1260;1002700;-80
2023/03/31 06:01:09;;;;;;;18.70;9.30;;;;;;;-128.00;-1.00;-1.00;103195;1257;1002886;-78
2023/03/31 06:03:37;;;;;;;14.60;7.00;;;;;;;-128.00;-1.00;-1.00;103468;1257;1013516;-80
2023/03/31 06:06:07;;;;;;;11.00;6.30;;;;;;;-128.00;-1.00;-1.00;103417;1256;1002715;-80
2023/03/31 06:08:34;;;;;;;14.30;9.00;;;;;;;-128.00;-1.00;-1.00;103354;1256;1010800;-78
2023/03/31 06:11:09;;;;;;;13.10;8.20;;;;;;;-128.00;-1.00;-1.00;103417;1257;1003201;-81
2023/03/31 06:13:35;;;;;;;16.80;8.20;;;;;;;-128.00;-1.00;-1.00;103882;1259;1012785;-78
2023/03/31 06:16:02;;;;;;;15.80;8.20;;;;;;;-128.00;-1.00;-1.00;103420;1256;1002270;-79
2023/03/31 06:18:29;;;;;;;12.20;6.10;;;;;;;-128.00;-1.00;-1.00;104680;1256;1004281;-78
2023/03/31 06:20:56;;;;;;;11.30;6.00;;;;;;;-128.00;-1.00;-1.00;103525;1258;1002853;-78
2023/03/31 06:23:23;;;;;;;14.90;8.90;;;;;;;-128.00;-1.00;-1.00;103482;1257;1002395;-81
2023/03/31 06:25:50;;;;;;;16.40;8.50;;;;;;;-128.00;-1.00;-1.00;103540;1256;1002832;-79
2023/03/31 06:28:16;;;;;;;12.70;7.50;;;;;;;-128.00;-1.00;-1.00;103962;1256;1002348;-82
2023/03/31 06:30:43;;;;;;;14.10;7.10;;;;;;;-128.00;-1.00;-1.00;104029;1257;1005010;-78
2023/03/31 06:33:10;;;;;;;11.40;7.10;;;;;;;-128.00;-1.00;-1.00;104068;1256;1002514;-81
2023/03/31 06:35:37;;;;;;;14.80;9.30;;;;;;;-128.00;-1.00;-1.00;104067;1257;1003046;-79
2023/03/31 06:38:03;;;;;;;13.90;7.60;;;;;;;-128.00;-1.00;-1.00;104073;1256;1003361;-80
2023/03/31 06:40:30;;;;;;;15.40;8.40;;;;;;;-128.00;-1.00;-1.00;104074;1256;1002730;-79
2023/03/31 06:42:56;;;;;;;11.70;6.50;;;;;;;-128.00;-1.00;-1.00;103862;1259;1002566;-80
2023/03/31 06:45:22;;;;;;;17.50;7.80;;;;;;;-128.00;-1.00;-1.00;103290;1256;1003252;-80
2023/03/31 06:47:49;;;;;;;24.20;12.20;;;;;;;-128.00;-1.00;-1.00;103424;1257;1003786;-80
2023/03/31 06:50:16;;;;;;;22.20;11.80;;;;;;;-128.00;-1.00;-1.00;103423;1255;1003308;-78
2023/03/31 06:52:42;;;;;;;24.20;12.10;;;;;;;-128.00;-1.00;-1.00;103665;1257;1004386;-81
2023/03/31 06:55:08;;;;;;;15.50;6.80;;;;;;;-128.00;-1.00;-1.00;103565;1256;1003260;-81
2023/03/31 06:57:35;;;;;;;7.60;4.60;;;;;;;-128.00;-1.00;-1.00;103607;1256;1002769;-81
2023/03/31 07:00:04;;;;;;;8.50;4.50;;;;;;;-128.00;-1.00;-1.00;103752;1257;1002544;-81
2023/03/31 07:02:30;;;;;;;6.60;4.00;;;;;;;-128.00;-1.00;-1.00;103648;1260;1016886;-81
2023/03/31 07:04:57;;;;;;;9.70;5.20;;;;;;;-128.00;-1.00;-1.00;103665;1261;1002576;-81
2023/03/31 07:07:23;;;;;;;12.50;4.10;;;;;;;-128.00;-1.00;-1.00;103619;1256;1002795;-80
2023/03/31 07:09:50;;;;;;;8.10;5.30;;;;;;;-128.00;-1.00;-1.00;103629;1256;1002818;-78
2023/03/31 07:12:16;;;;;;;7.10;3.50;;;;;;;-128.00;-1.00;-1.00;103693;1257;1002453;-81
2023/03/31 07:14:42;;;;;;;8.50;3.80;;;;;;;-128.00;-1.00;-1.00;103694;1261;1002732;-77
2023/03/31 07:17:09;;;;;;;6.00;3.20;;;;;;;-128.00;-1.00;-1.00;103827;1257;1002688;-77
2023/03/31 07:19:36;;;;;;;4.20;2.80;;;;;;;-128.00;-1.00;-1.00;103803;1256;1002457;-79
2023/03/31 07:22:04;;;;;;;6.80;2.70;;;;;;;-128.00;-1.00;-1.00;103660;1256;1003206;-79
2023/03/31 07:24:31;;;;;;;7.70;4.30;;;;;;;-128.00;-1.00;-1.00;103415;1262;1016157;-77
2023/03/31 07:26:58;;;;;;;3.80;2.80;;;;;;;-128.00;-1.00;-1.00;103490;1257;1004165;-77
2023/03/31 07:29:24;;;;;;;4.50;2.90;;;;;;;-128.00;-1.00;-1.00;103437;1255;1002927;-77
2023/03/31 07:31:51;;;;;;;6.30;3.00;;;;;;;-128.00;-1.00;-1.00;103450;1257;1002813;-77
2023/03/31 07:34:18;;;;;;;7.30;2.90;;;;;;;-128.00;-1.00;-1.00;103189;1259;1003206;-77
2023/03/31 07:36:44;;;;;;;5.90;2.90;;;;;;;-128.00;-1.00;-1.00;103470;1257;1003087;-77
2023/03/31 07:39:10;;;;;;;3.70;2.50;;;;;;;-128.00;-1.00;-1.00;103507;1257;1002346;-78
2023/03/31 07:41:37;;;;;;;6.70;2.50;;;;;;;-128.00;-1.00;-1.00;103634;1256;1002881;-79
2023/03/31 07:44:03;;;;;;;4.20;2.10;;;;;;;-128.00;-1.00;-1.00;103642;1256;1002701;-79
2023/03/31 07:46:30;;;;;;;4.50;1.90;;;;;;;-128.00;-1.00;-1.00;103588;1261;1002796;-79
2023/03/31 07:48:57;;;;;;;3.90;2.00;;;;;;;-128.00;-1.00;-1.00;103517;1255;1002762;-79
2023/03/31 07:51:25;;;;;;;4.70;2.20;;;;;;;-128.00;-1.00;-1.00;103493;1259;1002556;-79
2023/03/31 07:53:51;;;;;;;3.90;1.90;;;;;;;-128.00;-1.00;-1.00;103411;1256;1002548;-80
2023/03/31 07:56:20;;;;;;;7.50;3.20;;;;;;;-128.00;-1.00;-1.00;103529;1261;1003287;-79
2023/03/31 07:58:46;;;;;;;6.50;2.60;;;;;;;-128.00;-1.00;-1.00;103461;1256;1010872;-77
2023/03/31 08:01:17;;;;;;;6.00;3.10;;;;;;;-128.00;-1.00;-1.00;103477;1259;1002132;-77
2023/03/31 08:03:45;;;;;;;10.20;2.40;;;;;;;-128.00;-1.00;-1.00;103468;1259;1012932;-77
2023/03/31 08:06:17;;;;;;;11.30;2.70;;;;;;;-128.00;-1.00;-1.00;103396;1256;1002518;-79
2023/03/31 08:08:43;;;;;;;5.90;3.20;;;;;;;-128.00;-1.00;-1.00;103465;1259;1010391;-77
2023/03/31 08:11:09;;;;;;;12.10;5.40;;;;;;;-128.00;-1.00;-1.00;103676;1257;1002712;-77
2023/03/31 08:13:36;;;;;;;8.00;3.90;;;;;;;-128.00;-1.00;-1.00;104386;1259;1002490;-79
2023/03/31 08:16:02;;;;;;;9.40;3.70;;;;;;;-128.00;-1.00;-1.00;103310;1262;1003044;-77
2023/03/31 08:18:29;;;;;;;11.70;3.30;;;;;;;-128.00;-1.00;-1.00;103596;1256;1002826;-79
2023/03/31 08:20:55;;;;;;;9.90;4.50;;;;;;;-128.00;-1.00;-1.00;103499;1256;1002417;-77
2023/03/31 08:23:22;;;;;;;3.00;2.00;;;;;;;-128.00;-1.00;-1.00;103483;1257;1002366;-76
2023/03/31 08:25:48;;;;;;;9.20;3.40;;;;;;;-128.00;-1.00;-1.00;103451;1260;1003631;-76
2023/03/31 08:28:16;;;;;;;8.10;3.10;;;;;;;-128.00;-1.00;-1.00;103492;1257;1004586;-77
2023/03/31 08:30:42;;;;;;;5.00;2.90;;;;;;;-128.00;-1.00;-1.00;103401;1259;1002425;-80
2023/03/31 08:33:11;;;;;;;8.90;2.50;;;;;;;-128.00;-1.00;-1.00;103455;1257;1003959;-79
2023/03/31 08:35:37;;;;;;;7.80;4.00;;;;;;;-128.00;-1.00;-1.00;103465;1261;1011032;-80
2023/03/31 08:38:03;;;;;;;6.30;3.20;;;;;;;-128.00;-1.00;-1.00;103777;1256;1004286;-80
2023/03/31 08:40:30;;;;;;;12.80;4.00;;;;;;;-128.00;-1.00;-1.00;103588;1262;1003791;-80
2023/03/31 08:43:17;;;;;;;14.50;5.70;;;;;;;-128.00;-1.00;-1.00;103291;1257;1003316;-78
2023/03/31 08:45:45;;;;;;;17.90;9.60;;;;;;;-128.00;-1.00;-1.00;104359;1256;1009126;-80
2023/03/31 08:48:24;;;;;;;27.50;16.10;;;;;;;-128.00;-1.00;-1.00;103600;1256;1011134;-78
2023/03/31 08:50:53;;;;;;;3.60;1.90;;;;;;;-128.00;-1.00;-1.00;103328;1257;1012997;-80
2023/03/31 08:53:27;;;;;;;7.30;2.50;;;;;;;-128.00;-1.00;-1.00;103742;1260;1012691;-78
2023/03/31 08:55:55;;;;;;;8.30;2.60;;;;;;;-128.00;-1.00;-1.00;103441;1256;1016268;-79
2023/03/31 08:58:31;;;;;;;6.00;2.40;;;;;;;-128.00;-1.00;-1.00;103510;1256;1002982;-81
2023/03/31 09:01:35;;;;;;;16.90;3.30;;;;;;;-128.00;-1.00;-1.00;103871;1256;1011232;-80
2023/03/31 09:04:12;;;;;;;5.10;2.20;;;;;;;-128.00;-1.00;-1.00;103875;1262;1013872;-78
2023/03/31 09:07:01;;;;;;;4.80;1.80;;;;;;;-128.00;-1.00;-1.00;103938;1262;1013563;-81
2023/03/31 09:09:51;;;;;;;4.60;2.10;;;;;;;-128.00;-1.00;-1.00;103862;1259;1013021;-80
2023/03/31 09:12:20;;;;;;;8.70;3.50;;;;;;;-128.00;-1.00;-1.00;103860;1256;1010025;-78
2023/03/31 09:14:51;;;;;;;4.50;1.80;;;;;;;-128.00;-1.00;-1.00;103762;1257;1011641;-80
2023/03/31 09:17:22;;;;;;;12.60;2.70;;;;;;;-128.00;-1.00;-1.00;103316;1257;1014163;-80
2023/03/31 09:19:58;;;;;;;2.80;1.70;;;;;;;-128.00;-1.00;-1.00;103532;1259;1012516;-80
2023/03/31 09:22:29;;;;;;;6.10;2.20;;;;;;;-128.00;-1.00;-1.00;103550;1256;1012327;-77
2023/03/31 09:25:09;;;;;;;5.90;2.40;;;;;;;-128.00;-1.00;-1.00;103569;1257;1009809;-80
2023/03/31 09:27:36;;;;;;;8.70;3.80;;;;;;;-128.00;-1.00;-1.00;103517;1256;1011905;-79
2023/03/31 09:30:20;;;;;;;9.10;3.30;;;;;;;-128.00;-1.00;-1.00;103281;1262;1003163;-78
2023/03/31 09:32:47;;;;;;;8.50;3.60;;;;;;;-128.00;-1.00;-1.00;103409;1257;1013384;-78
2023/03/31 09:35:22;;;;;;;8.70;3.30;;;;;;;-128.00;-1.00;-1.00;103472;1257;1003996;-79
2023/03/31 09:37:48;;;;;;;6.30;2.80;;;;;;;-128.00;-1.00;-1.00;103208;1264;1010675;-78
2023/03/31 09:40:20;;;;;;;7.60;2.80;;;;;;;-128.00;-1.00;-1.00;103478;1256;1002523;-77
2023/03/31 09:42:47;;;;;;;5.00;2.70;;;;;;;-128.00;-1.00;-1.00;103525;1257;1013166;-78
2023/03/31 09:45:15;;;;;;;7.60;3.80;;;;;;;-128.00;-1.00;-1.00;103449;1257;1003651;-80
2023/03/31 09:47:44;;;;;;;4.90;2.50;;;;;;;-128.00;-1.00;-1.00;103491;1257;1003057;-79
2023/03/31 09:50:10;;;;;;;18.10;4.10;;;;;;;-128.00;-1.00;-1.00;103484;1257;1010298;-77
2023/03/31 09:52:39;;;;;;;7.60;2.90;;;;;;;-128.00;-1.00;-1.00;103380;1256;1003139;-77
2023/03/31 09:55:09;;;;;;;;;;;;;;;-128.00;-1.00;-1.00;103428;1262;1012472;-80
2023/03/31 09:57:38;;;;;;;5.40;2.80;;;;;;;-128.00;-1.00;-1.00;103455;1256;1014805;-79
2023/03/31 10:00:15;;;;;;;4.20;2.30;;;;;;;-128.00;-1.00;-1.00;103529;1257;1012980;-77
2023/03/31 10:02:47;;;;;;;5.10;2.00;;;;;;;-128.00;-1.00;-1.00;103419;1257;1010164;-79
2023/03/31 10:05:39;;;;;;;5.00;2.10;;;;;;;-128.00;-1.00;-1.00;103295;1256;1013128;-77
2023/03/31 10:08:15;;;;;;;3.70;2.60;;;;;;;-128.00;-1.00;-1.00;103436;1262;1012878;-79
2023/03/31 10:11:05;;;;;;;4.20;2.10;;;;;;;-128.00;-1.00;-1.00;103537;1262;1016103;-79
2023/03/31 10:13:49;;;;;;;8.60;3.00;;;;;;;-128.00;-1.00;-1.00;103519;1256;1013768;-79
2023/03/31 10:16:26;;;;;;;4.00;1.70;;;;;;;-128.00;-1.00;-1.00;103344;1256;1009857;-78
2023/03/31 10:18:53;;;;;;;8.50;2.80;;;;;;;-128.00;-1.00;-1.00;103608;1257;1011331;-78
2023/03/31 10:21:25;;;;;;;4.20;1.60;;;;;;;-128.00;-1.00;-1.00;103609;1257;1003184;-79
2023/03/31 10:23:52;;;;;;;6.30;2.60;;;;;;;-128.00;-1.00;-1.00;103502;1259;1013446;-80
2023/03/31 10:26:23;;;;;;;4.60;2.30;;;;;;;-128.00;-1.00;-1.00;103464;1256;1002560;-80
2023/03/31 10:28:51;;;;;;;4.30;2.40;;;;;;;-128.00;-1.00;-1.00;103270;1257;1010015;-78
2023/03/31 10:31:34;;;;;;;4.20;2.40;;;;;;;-128.00;-1.00;-1.00;103335;1256;1002768;-78
2023/03/31 10:34:05;;;;;;;8.10;2.80;;;;;;;-128.00;-1.00;-1.00;103220;1257;1013629;-79
2023/03/31 10:36:32;;;;;;;5.50;1.90;;;;;;;-128.00;-1.00;-1.00;104219;1257;1012766;-79
2023/03/31 10:38:58;;;;;;;8.00;2.50;;;;;;;-128.00;-1.00;-1.00;103331;1256;1002661;-80
2023/03/31 10:41:26;;;;;;;5.80;2.10;;;;;;;-128.00;-1.00;-1.00;103217;1257;1004123;-81
2023/03/31 10:43:54;;;;;;;6.30;3.10;;;;;;;-128.00;-1.00;-1.00;103389;1259;1003134;-81
2023/03/31 10:46:38;;;;;;;5.10;2.90;;;;;;;-128.00;-1.00;-1.00;103290;1257;1003394;-79
2023/03/31 10:49:38;;;;;;;6.40;1.50;;;;;;;-128.00;-1.00;-1.00;103037;1257;1013722;-81
2023/03/31 10:52:14;;;;;;;4.50;2.10;;;;;;;-128.00;-1.00;-1.00;103287;1261;1013688;-81
2023/03/31 10:54:46;;;;;;;5.50;1.80;;;;;;;-128.00;-1.00;-1.00;103108;1257;1009753;-79
2023/03/31 10:57:13;;;;;;;3.30;1.60;;;;;;;-128.00;-1.00;-1.00;103431;1256;1011110;-81
2023/03/31 11:00:04;;;;;;;5.00;2.20;;;;;;;-128.00;-1.00;-1.00;103039;1257;1002778;-81
2023/03/31 11:02:52;;;;;;;6.70;3.30;;;;;;;-128.00;-1.00;-1.00;103702;1257;1012646;-78
2023/03/31 11:05:38;;;;;;;4.90;2.10;;;;;;;-128.00;-1.00;-1.00;103296;1257;1019194;-79
2023/03/31 11:08:30;;;;;;;5.90;2.70;;;;;;;-128.00;-1.00;-1.00;103424;1258;1010061;-78
2023/03/31 11:11:08;;;;;;;5.20;1.90;;;;;;;-128.00;-1.00;-1.00;103302;1257;1011282;-78
2023/03/31 11:13:43;;;;;;;38.80;16.80;;;;;;;-128.00;-1.00;-1.00;103430;1262;1013082;-78
2023/03/31 11:16:28;;;;;;;6.00;3.50;;;;;;;-128.00;-1.00;-1.00;103541;1262;1012836;-78
2023/03/31 11:19:18;;;;;;;8.30;7.10;;;;;;;-128.00;-1.00;-1.00;103674;1261;1013059;-78
2023/03/31 11:21:56;;;;;;;6.70;3.40;;;;;;;-128.00;-1.00;-1.00;103670;1256;1009399;-78
2023/03/31 11:25:00;;;;;;;5.30;2.20;;;;;;;-128.00;-1.00;-1.00;103623;1259;1011706;-78
2023/03/31 11:27:46;;;;;;;6.60;3.10;;;;;;;-128.00;-1.00;-1.00;103383;1257;1013790;-80
2023/03/31 11:30:27;;;;;;;6.80;3.60;;;;;;;-128.00;-1.00;-1.00;103290;1262;1013314;-77
2023/03/31 11:33:05;;;;;;;10.00;6.40;;;;;;;-128.00;-1.00;-1.00;103275;1257;1012821;-78